Time;durP1;ratioP1;P1;durP2;ratioP2;P2;SDS_P1;SDS_P2;PMS_P1;PMS_P2;Temp;Humidity;BMP_temperature;BMP_pressure;BME280_temperature;BME280_humidity;BME280_pressure;Samples;Min_cycle;Max_cycle;Signal;HPM_P1;HPM_P2
2022/04/16 00:02:07;;;;;;;0.10;0.10;;;;;;;;;;4943003;28;20108;-83
2022/04/16 00:04:33;;;;;;;0.10;0.10;;;;;;;;;;4943121;28;20295;-83
2022/04/16 00:06:59;;;;;;;0.10;0.10;;;;;;;;;;4942938;29;20118;-84
2022/04/16 00:09:26;;;;;;;0.20;0.20;;;;;;;;;;4943038;29;20039;-83
2022/04/16 00:11:52;;;;;;;0.10;0.10;;;;;;;;;;4943534;28;20517;-83
2022/04/16 00:14:19;;;;;;;;;;;;;;;;;;4943822;28;20037;-83
2022/04/16 00:16:46;;;;;;;0.13;0.13;;;;;;;;;;4941598;28;19914;-83
2022/04/16 00:19:12;;;;;;;0.00;0.00;;;;;;;;;;4944766;28;20054;-83
2022/04/16 00:21:39;;;;;;;0.15;0.15;;;;;;;;;;4942169;29;20134;-83
2022/04/16 00:24:06;;;;;;;;;;;;;;;;;;4943698;29;20032;-84
2022/04/16 00:26:32;;;;;;;;;;;;;;;;;;4945789;29;19924;-83
2022/04/16 00:28:59;;;;;;;0.10;0.10;;;;;;;;;;4943791;29;20681;-83
2022/04/16 00:31:29;;;;;;;0.43;0.43;;;;;;;;;;4941181;28;20047;-84
2022/04/16 00:33:55;;;;;;;0.10;0.10;;;;;;;;;;4943192;28;20027;-83
2022/04/16 00:36:21;;;;;;;0.23;0.23;;;;;;;;;;4943210;29;20050;-84
2022/04/16 00:38:47;;;;;;;0.10;0.10;;;;;;;;;;4944171;29;20065;-83
2022/04/16 00:41:13;;;;;;;0.20;0.20;;;;;;;;;;4943911;28;20791;-83
2022/04/16 00:43:40;;;;;;;0.10;0.10;;;;;;;;;;4943822;28;20995;-83
2022/04/16 00:46:06;;;;;;;0.65;0.30;;;;;;;;;;4944205;28;20027;-84
2022/04/16 00:48:32;;;;;;;0.10;0.10;;;;;;;;;;4942791;28;20039;-83
2022/04/16 00:50:59;;;;;;;0.00;0.00;;;;;;;;;;4943048;29;20042;-84
2022/04/16 00:53:28;;;;;;;;;;;;;;;;;;4944799;29;20057;-83
2022/04/16 00:55:54;;;;;;;0.30;0.30;;;;;;;;;;4941389;29;19973;-83
2022/04/16 00:58:20;;;;;;;0.17;0.17;;;;;;;;;;4943968;28;20038;-83
2022/04/16 01:00:46;;;;;;;0.10;0.10;;;;;;;;;;4942441;28;20576;-84
2022/04/16 01:03:12;;;;;;;0.30;0.30;;;;;;;;;;4941506;29;20452;-84
2022/04/16 01:05:38;;;;;;;0.15;0.15;;;;;;;;;;4945788;29;20039;-84
2022/04/16 01:08:04;;;;;;;0.10;0.10;;;;;;;;;;4941537;28;20027;-84
2022/04/16 01:10:32;;;;;;;0.05;0.05;;;;;;;;;;4942230;29;20122;-84
2022/04/16 01:12:59;;;;;;;0.20;0.15;;;;;;;;;;4943366;29;20047;-83
2022/04/16 01:15:25;;;;;;;0.10;0.10;;;;;;;;;;4942223;29;20127;-84
2022/04/16 01:17:52;;;;;;;0.10;0.10;;;;;;;;;;4943207;29;20058;-84
2022/04/16 01:20:19;;;;;;;0.10;0.10;;;;;;;;;;4942608;28;20030;-84
2022/04/16 01:22:46;;;;;;;0.20;0.20;;;;;;;;;;4943898;28;20035;-84
2022/04/16 01:25:12;;;;;;;0.10;0.10;;;;;;;;;;4941950;28;20074;-82
2022/04/16 01:27:45;;;;;;;0.10;0.10;;;;;;;;;;4941945;28;20090;-84
2022/04/16 01:30:12;;;;;;;0.10;0.10;;;;;;;;;;4941060;29;20027;-83
2022/04/16 01:32:38;;;;;;;0.10;0.10;;;;;;;;;;4940476;29;20050;-84
2022/04/16 01:35:07;;;;;;;0.10;0.10;;;;;;;;;;4943550;28;20051;-83
2022/04/16 01:37:35;;;;;;;0.03;0.03;;;;;;;;;;4941679;28;20027;-83
2022/04/16 01:40:02;;;;;;;0.20;0.20;;;;;;;;;;4936401;29;20086;-83
2022/04/16 01:42:29;;;;;;;;;;;;;;;;;;4941710;29;20031;-83
2022/04/16 01:44:56;;;;;;;0.20;0.20;;;;;;;;;;4943651;29;19933;-83
2022/04/16 01:47:22;;;;;;;0.00;0.00;;;;;;;;;;4942215;29;20555;-83
2022/04/16 01:49:48;;;;;;;1.47;0.20;;;;;;;;;;4942265;28;20784;-83
2022/04/16 01:52:14;;;;;;;0.20;0.20;;;;;;;;;;4943469;28;20382;-84
2022/04/16 01:54:41;;;;;;;0.20;0.20;;;;;;;;;;4955265;28;20039;-84
2022/04/16 01:57:07;;;;;;;0.43;0.40;;;;;;;;;;4942819;28;20060;-84
2022/04/16 01:59:33;;;;;;;0.40;0.40;;;;;;;;;;4944335;29;20034;-84
2022/04/16 02:01:59;;;;;;;0.17;0.17;;;;;;;;;;4940940;29;20040;-85
2022/04/16 02:04:26;;;;;;;0.17;0.17;;;;;;;;;;4942531;29;20333;-84
2022/04/16 02:06:52;;;;;;;1.40;0.28;;;;;;;;;;4942062;28;20030;-83
2022/04/16 02:09:18;;;;;;;0.10;0.10;;;;;;;;;;4941443;29;20028;-83
2022/04/16 02:11:44;;;;;;;0.20;0.20;;;;;;;;;;4942045;29;20054;-84
2022/04/16 02:14:11;;;;;;;0.10;0.10;;;;;;;;;;4942437;29;20275;-83
2022/04/16 02:16:37;;;;;;;0.20;0.20;;;;;;;;;;4942624;28;20047;-84
2022/04/16 02:19:03;;;;;;;0.13;0.13;;;;;;;;;;4940536;28;20062;-83
2022/04/16 02:21:32;;;;;;;1.00;0.37;;;;;;;;;;4943534;28;20481;-82
2022/04/16 02:23:58;;;;;;;0.10;0.10;;;;;;;;;;4942793;29;20271;-82
2022/04/16 02:26:26;;;;;;;0.10;0.10;;;;;;;;;;4942724;29;20125;-82
2022/04/16 02:28:52;;;;;;;0.08;0.08;;;;;;;;;;4942674;28;20664;-83
2022/04/16 02:31:18;;;;;;;0.10;0.10;;;;;;;;;;4941275;29;20774;-83
2022/04/16 02:33:44;;;;;;;0.10;0.10;;;;;;;;;;4940924;29;20027;-83
2022/04/16 02:36:11;;;;;;;0.10;0.10;;;;;;;;;;4948181;28;20035;-84
2022/04/16 02:38:40;;;;;;;0.20;0.20;;;;;;;;;;4940469;28;20295;-85
2022/04/16 02:41:06;;;;;;;0.10;0.10;;;;;;;;;;4945062;28;20643;-83
2022/04/16 02:43:32;;;;;;;0.20;0.20;;;;;;;;;;4944453;29;20595;-84
2022/04/16 02:48:43;;;;;;;0.20;0.20;;;;;;;;;;4944596;29;20041;-83
2022/04/16 02:51:09;;;;;;;0.10;0.10;;;;;;;;;;4944611;29;20110;-82
2022/04/16 02:53:36;;;;;;;0.10;0.10;;;;;;;;;;4948042;29;20114;-84
2022/04/16 02:56:02;;;;;;;0.30;0.30;;;;;;;;;;4946136;28;20314;-85
2022/04/16 02:58:28;;;;;;;0.03;0.03;;;;;;;;;;4945896;29;20065;-84
2022/04/16 03:00:54;;;;;;;0.32;0.32;;;;;;;;;;4944608;28;20033;-83
2022/04/16 03:03:22;;;;;;;0.10;0.10;;;;;;;;;;4946694;28;20045;-84
2022/04/16 03:05:48;;;;;;;0.10;0.10;;;;;;;;;;4947009;29;20057;-83
2022/04/16 03:08:15;;;;;;;1.00;0.40;;;;;;;;;;4947862;28;20043;-83
2022/04/16 03:10:41;;;;;;;0.10;0.10;;;;;;;;;;4943887;28;20285;-84
2022/04/16 03:13:07;;;;;;;0.13;0.13;;;;;;;;;;4945244;29;20035;-83
2022/04/16 03:18:19;;;;;;;0.28;0.28;;;;;;;;;;4939800;28;20433;-82
2022/04/16 03:20:46;;;;;;;0.15;0.15;;;;;;;;;;4944892;29;20031;-83
2022/04/16 03:23:12;;;;;;;0.32;0.32;;;;;;;;;;4945113;29;20042;-83
2022/04/16 03:25:40;;;;;;;0.10;0.10;;;;;;;;;;4944833;28;20031;-82
2022/04/16 03:28:06;;;;;;;0.10;0.10;;;;;;;;;;4944164;28;20039;-82
2022/04/16 03:30:32;;;;;;;0.20;0.20;;;;;;;;;;4943390;29;20043;-81
2022/04/16 03:32:59;;;;;;;0.10;0.10;;;;;;;;;;4945364;29;20054;-82
2022/04/16 03:35:25;;;;;;;0.20;0.20;;;;;;;;;;4946021;29;20050;-82
2022/04/16 03:37:51;;;;;;;0.20;0.20;;;;;;;;;;4945846;28;20035;-82
2022/04/16 03:40:17;;;;;;;0.10;0.10;;;;;;;;;;4943587;28;20086;-84
2022/04/16 03:42:46;;;;;;;0.47;0.47;;;;;;;;;;4943936;29;20381;-83
2022/04/16 03:45:16;;;;;;;0.10;0.10;;;;;;;;;;4939660;29;20531;-83
2022/04/16 03:47:42;;;;;;;0.20;0.20;;;;;;;;;;4946328;29;20039;-83
2022/04/16 03:50:10;;;;;;;0.10;0.10;;;;;;;;;;4945031;28;20039;-83
2022/04/16 03:52:40;;;;;;;0.80;0.55;;;;;;;;;;4943666;29;20050;-83
2022/04/16 04:00:36;;;;;;;0.20;0.20;;;;;;;;;;4943824;29;20039;-83
2022/04/16 04:03:02;;;;;;;0.10;0.10;;;;;;;;;;4943162;29;20055;-83
2022/04/16 04:05:29;;;;;;;0.30;0.30;;;;;;;;;;4944529;29;20058;-83
2022/04/16 04:07:55;;;;;;;0.13;0.13;;;;;;;;;;4943716;28;20031;-83
2022/04/16 04:10:21;;;;;;;0.10;0.10;;;;;;;;;;4941725;29;20035;-83
2022/04/16 04:12:48;;;;;;;0.07;0.07;;;;;;;;;;4942408;29;20066;-83
2022/04/16 04:15:14;;;;;;;0.20;0.20;;;;;;;;;;4942008;29;20031;-83
2022/04/16 04:17:40;;;;;;;0.00;0.00;;;;;;;;;;4945979;29;20579;-83
2022/04/16 04:20:06;;;;;;;0.55;0.22;;;;;;;;;;4942918;29;20087;-82
2022/04/16 04:22:32;;;;;;;0.00;0.00;;;;;;;;;;4943372;29;20150;-83
2022/04/16 04:24:58;;;;;;;0.10;0.10;;;;;;;;;;4942682;29;20031;-83
2022/04/16 04:27:24;;;;;;;0.17;0.17;;;;;;;;;;4944300;29;20031;-84
2022/04/16 04:29:50;;;;;;;0.05;0.05;;;;;;;;;;4944662;29;20069;-83
2022/04/16 04:32:16;;;;;;;0.00;0.00;;;;;;;;;;4943265;28;20106;-82
2022/04/16 04:34:42;;;;;;;1.25;0.90;;;;;;;;;;4943675;29;20054;-82
2022/04/16 04:37:08;;;;;;;0.20;0.20;;;;;;;;;;4942533;28;20504;-82
2022/04/16 04:39:34;;;;;;;0.10;0.10;;;;;;;;;;4942311;28;20046;-82
2022/04/16 04:42:00;;;;;;;0.60;0.47;;;;;;;;;;4944043;29;20046;-83
2022/04/16 04:44:26;;;;;;;0.07;0.03;;;;;;;;;;4943200;29;20035;-83
2022/04/16 04:46:52;;;;;;;0.27;0.27;;;;;;;;;;4942890;29;20035;-83
2022/04/16 04:49:19;;;;;;;0.03;0.03;;;;;;;;;;4943241;29;20126;-82
2022/04/16 04:51:45;;;;;;;0.40;0.40;;;;;;;;;;4942586;29;20039;-83
2022/04/16 04:54:11;;;;;;;0.10;0.10;;;;;;;;;;4941742;29;20661;-84
2022/04/16 04:56:37;;;;;;;0.00;0.00;;;;;;;;;;4945378;29;20050;-84
2022/04/16 04:59:03;;;;;;;3.97;0.40;;;;;;;;;;4942236;29;20035;-83
2022/04/16 05:01:30;;;;;;;0.20;0.20;;;;;;;;;;4943583;28;20045;-84
2022/04/16 05:03:56;;;;;;;0.50;0.47;;;;;;;;;;4941860;29;20050;-83
2022/04/16 05:06:22;;;;;;;0.10;0.10;;;;;;;;;;4945006;29;20160;-86
2022/04/16 05:08:48;;;;;;;0.30;0.30;;;;;;;;;;4945397;28;20342;-85
2022/04/16 05:11:14;;;;;;;0.50;0.50;;;;;;;;;;4944988;29;20098;-84
2022/04/16 05:13:40;;;;;;;0.00;0.00;;;;;;;;;;4943190;29;20107;-84
2022/04/16 05:16:07;;;;;;;0.10;0.10;;;;;;;;;;4942131;28;20039;-84
2022/04/16 05:18:33;;;;;;;0.30;0.30;;;;;;;;;;4944311;29;20043;-83
2022/04/16 05:20:59;;;;;;;0.10;0.10;;;;;;;;;;4944385;29;20397;-84
2022/04/16 05:23:25;;;;;;;0.63;0.63;;;;;;;;;;4943336;29;20042;-83
2022/04/16 05:25:51;;;;;;;0.50;0.50;;;;;;;;;;4941636;28;20027;-81
2022/04/16 05:28:17;;;;;;;0.20;0.20;;;;;;;;;;4943695;29;20039;-84
2022/04/16 05:30:48;;;;;;;0.20;0.20;;;;;;;;;;4941812;29;20086;-83
2022/04/16 05:36:03;;;;;;;0.10;0.10;;;;;;;;;;4943209;29;20547;-82
2022/04/16 05:38:30;;;;;;;0.20;0.20;;;;;;;;;;4943237;29;20094;-83
2022/04/16 05:40:56;;;;;;;0.25;0.22;;;;;;;;;;4940969;29;20063;-83
2022/04/16 05:43:22;;;;;;;0.13;0.10;;;;;;;;;;4942846;29;20039;-85
2022/04/16 05:45:48;;;;;;;0.30;0.30;;;;;;;;;;4942724;29;20062;-86
2022/04/16 05:48:14;;;;;;;0.68;0.68;;;;;;;;;;4938135;29;20035;-86
2022/04/16 05:50:40;;;;;;;0.20;0.20;;;;;;;;;;4937325;29;20035;-86
2022/04/16 05:53:07;;;;;;;0.10;0.10;;;;;;;;;;4941719;28;20429;-87
2022/04/16 05:55:34;;;;;;;0.10;0.10;;;;;;;;;;4942233;28;20119;-86
2022/04/16 05:58:00;;;;;;;0.10;0.10;;;;;;;;;;4942515;28;20042;-88
2022/04/16 06:00:27;;;;;;;0.03;0.03;;;;;;;;;;4941364;28;20143;-87
2022/04/16 06:02:53;;;;;;;0.75;0.30;;;;;;;;;;4940694;28;20040;-86
2022/04/16 06:05:21;;;;;;;0.68;0.65;;;;;;;;;;4942730;28;20039;-86
2022/04/16 06:07:47;;;;;;;0.20;0.20;;;;;;;;;;4928347;29;20460;-87
2022/04/16 06:10:13;;;;;;;0.10;0.10;;;;;;;;;;4932287;28;20051;-87
2022/04/16 06:12:41;;;;;;;0.30;0.30;;;;;;;;;;4932647;28;20299;-87
2022/04/16 06:15:07;;;;;;;0.68;0.55;;;;;;;;;;4938831;29;20744;-86
2022/04/16 06:17:33;;;;;;;0.13;0.10;;;;;;;;;;4937413;28;20134;-85
2022/04/16 06:19:59;;;;;;;1.25;0.77;;;;;;;;;;4938164;28;20119;-85
2022/04/16 06:22:25;;;;;;;0.10;0.10;;;;;;;;;;4932637;28;20046;-84
2022/04/16 06:24:51;;;;;;;0.20;0.20;;;;;;;;;;4935078;28;20040;-85
2022/04/16 06:27:17;;;;;;;1.90;0.40;;;;;;;;;;4932722;28;20035;-89
2022/04/16 06:29:43;;;;;;;0.28;0.28;;;;;;;;;;4930338;28;20151;-86
2022/04/16 06:32:09;;;;;;;0.20;0.20;;;;;;;;;;4932126;28;20039;-85
2022/04/16 06:34:35;;;;;;;0.10;0.10;;;;;;;;;;4932285;28;20062;-86
2022/04/16 06:37:01;;;;;;;0.10;0.10;;;;;;;;;;4937922;28;20557;-88
2022/04/16 06:39:27;;;;;;;0.17;0.17;;;;;;;;;;4943894;28;20036;-86
2022/04/16 06:41:53;;;;;;;0.05;0.05;;;;;;;;;;4940481;28;20114;-85
2022/04/16 06:44:19;;;;;;;0.20;0.20;;;;;;;;;;4939378;28;20463;-86
2022/04/16 06:46:46;;;;;;;0.45;0.45;;;;;;;;;;4933143;28;20039;-86
2022/04/16 06:49:12;;;;;;;0.00;0.00;;;;;;;;;;4932144;29;20046;-84
2022/04/16 06:51:38;;;;;;;0.00;0.00;;;;;;;;;;4936982;28;20046;-83
2022/04/16 06:54:04;;;;;;;0.28;0.20;;;;;;;;;;4930944;28;21498;-85
2022/04/16 06:56:30;;;;;;;0.10;0.10;;;;;;;;;;4951826;28;20039;-82
2022/04/16 06:58:56;;;;;;;0.40;0.40;;;;;;;;;;4936351;28;20082;-81
2022/04/16 07:01:22;;;;;;;0.30;0.20;;;;;;;;;;4934672;28;20035;-88
2022/04/16 07:03:48;;;;;;;0.05;0.05;;;;;;;;;;4931362;28;20035;-87
2022/04/16 07:06:14;;;;;;;0.28;0.20;;;;;;;;;;4934788;29;20452;-89
2022/04/16 07:08:40;;;;;;;0.00;0.00;;;;;;;;;;4947042;28;20086;-89
2022/04/16 07:11:06;;;;;;;0.08;0.08;;;;;;;;;;4946881;28;20075;-88
2022/04/16 07:13:32;;;;;;;0.10;0.05;;;;;;;;;;4935743;28;20958;-86
2022/04/16 07:15:58;;;;;;;0.10;0.10;;;;;;;;;;4942230;28;20031;-86
2022/04/16 07:18:25;;;;;;;0.10;0.10;;;;;;;;;;4938075;28;20047;-86
2022/04/16 07:20:51;;;;;;;0.10;0.10;;;;;;;;;;4941421;29;20023;-86
2022/04/16 07:23:17;;;;;;;0.20;0.20;;;;;;;;;;4939870;28;20688;-86
2022/04/16 07:25:43;;;;;;;0.45;0.30;;;;;;;;;;4936849;28;20031;-85
2022/04/16 07:28:11;;;;;;;;;;;;;;;;;;4937405;29;20027;-88
2022/04/16 07:30:37;;;;;;;0.55;0.30;;;;;;;;;;4940419;28;19914;-88
2022/04/16 07:33:03;;;;;;;0.10;0.10;;;;;;;;;;4933513;29;20502;-85
2022/04/16 07:35:29;;;;;;;0.00;0.00;;;;;;;;;;4941080;28;20493;-86
2022/04/16 07:37:58;;;;;;;0.03;0.03;;;;;;;;;;4928528;29;20031;-88
2022/04/16 07:40:25;;;;;;;0.22;0.10;;;;;;;;;;4938927;29;20039;-86
2022/04/16 07:42:51;;;;;;;0.20;0.20;;;;;;;;;;4935323;29;20034;-85
2022/04/16 07:45:17;;;;;;;;;;;;;;;;;;4930616;29;20047;-86
2022/04/16 07:47:43;;;;;;;0.35;0.35;;;;;;;;;;4935167;29;21199;-85
2022/04/16 07:50:10;;;;;;;0.10;0.10;;;;;;;;;;4942704;29;20035;-86
2022/04/16 07:52:35;;;;;;;;;;;;;;;;;;4945046;28;20662;-85
2022/04/16 07:55:01;;;;;;;0.30;0.30;;;;;;;;;;4942384;29;19922;-86
2022/04/16 07:57:27;;;;;;;1.88;1.02;;;;;;;;;;4936528;29;20028;-87
2022/04/16 07:59:54;;;;;;;0.57;0.38;;;;;;;;;;4939850;28;20039;-86
2022/04/16 08:02:20;;;;;;;0.55;0.40;;;;;;;;;;4944191;28;20031;-86
2022/04/16 08:04:46;;;;;;;0.25;0.25;;;;;;;;;;4942058;28;20035;-84
2022/04/16 08:07:12;;;;;;;0.35;0.25;;;;;;;;;;4939126;28;20078;-84
2022/04/16 08:09:38;;;;;;;;;;;;;;;;;;4948430;28;20101;-86
2022/04/16 08:12:05;;;;;;;0.15;0.10;;;;;;;;;;4943800;28;20872;-85
2022/04/16 08:14:31;;;;;;;0.10;0.10;;;;;;;;;;4938063;28;20179;-85
2022/04/16 08:16:57;;;;;;;;;;;;;;;;;;4930912;29;20032;-86
2022/04/16 08:19:23;;;;;;;0.05;0.05;;;;;;;;;;4945471;28;20012;-86
2022/04/16 08:21:49;;;;;;;0.00;0.00;;;;;;;;;;4950533;28;20495;-85
2022/04/16 08:26:57;;;;;;;0.10;0.10;;;;;;;;;;4941919;28;20034;-85
2022/04/16 08:29:23;;;;;;;0.15;0.15;;;;;;;;;;4948422;28;20123;-86
2022/04/16 08:31:50;;;;;;;0.10;0.10;;;;;;;;;;4947187;28;20090;-86
2022/04/16 08:34:16;;;;;;;0.10;0.10;;;;;;;;;;4950805;28;20038;-86
2022/04/16 08:36:42;;;;;;;;;;;;;;;;;;4941567;28;20491;-86
2022/04/16 08:39:08;;;;;;;0.30;0.28;;;;;;;;;;4940972;29;19914;-86
2022/04/16 08:41:34;;;;;;;0.20;0.20;;;;;;;;;;4951232;28;20038;-87
2022/04/16 08:44:00;;;;;;;;;;;;;;;;;;4947713;28;20046;-86
2022/04/16 08:46:31;;;;;;;0.00;0.00;;;;;;;;;;4945953;28;20415;-86
2022/04/16 08:48:58;;;;;;;0.10;0.10;;;;;;;;;;4942879;28;20113;-86
2022/04/16 08:51:25;;;;;;;0.10;0.10;;;;;;;;;;4942980;28;20509;-86
2022/04/16 08:53:51;;;;;;;0.20;0.20;;;;;;;;;;4947206;28;20035;-86
2022/04/16 08:56:17;;;;;;;;;;;;;;;;;;4940785;29;20519;-88
2022/04/16 08:58:43;;;;;;;0.00;0.00;;;;;;;;;;4951823;28;19914;-87
2022/04/16 09:01:10;;;;;;;0.10;0.10;;;;;;;;;;4943215;28;20031;-87
2022/04/16 09:03:35;;;;;;;;;;;;;;;;;;4943149;28;20047;-87
2022/04/16 09:06:02;;;;;;;1.27;0.10;;;;;;;;;;4943334;29;19972;-86
2022/04/16 09:08:31;;;;;;;0.43;0.10;;;;;;;;;;4946117;28;20042;-87
2022/04/16 09:11:11;;;;;;;0.10;0.10;;;;;;;;;;4942063;28;20040;-87
2022/04/16 09:13:49;;;;;;;0.10;0.10;;;;;;;;;;4943184;28;20038;-87
2022/04/16 09:16:16;;;;;;;0.20;0.20;;;;;;;;;;4940856;28;20077;-86
2022/04/16 09:18:46;;;;;;;0.10;0.10;;;;;;;;;;4939580;29;20066;-86
2022/04/16 09:21:15;;;;;;;0.00;0.00;;;;;;;;;;4943400;28;20035;-86
2022/04/16 09:23:49;;;;;;;0.00;0.00;;;;;;;;;;4941867;28;20058;-86
2022/04/16 09:26:34;;;;;;;0.00;0.00;;;;;;;;;;4943802;28;20090;-85
2022/04/16 09:29:09;;;;;;;0.30;0.30;;;;;;;;;;4941201;29;20691;-86
2022/04/16 09:31:35;;;;;;;;;;;;;;;;;;4943752;28;20077;-84
2022/04/16 09:34:02;;;;;;;0.10;0.10;;;;;;;;;;4936069;28;19919;-86
2022/04/16 09:36:27;;;;;;;;;;;;;;;;;;4941138;28;20541;-86
2022/04/16 09:39:21;;;;;;;0.00;0.00;;;;;;;;;;4943035;28;19925;-86
2022/04/16 09:41:51;;;;;;;0.00;0.00;;;;;;;;;;4941945;29;20429;-85
2022/04/16 09:44:28;;;;;;;0.10;0.10;;;;;;;;;;4944073;28;20054;-86
2022/04/16 09:46:55;;;;;;;;;;;;;;;;;;4940484;29;20038;-87
2022/04/16 09:49:21;;;;;;;0.10;0.10;;;;;;;;;;4944036;28;19921;-86
2022/04/16 09:51:48;;;;;;;0.13;0.10;;;;;;;;;;4948405;28;20068;-87
2022/04/16 09:54:15;;;;;;;0.20;0.10;;;;;;;;;;4935068;28;20106;-85
2022/04/16 09:56:42;;;;;;;0.10;0.10;;;;;;;;;;4944240;28;20082;-86
2022/04/16 09:59:14;;;;;;;0.20;0.20;;;;;;;;;;4946560;28;20063;-86
2022/04/16 10:01:46;;;;;;;0.20;0.20;;;;;;;;;;4946659;28;20786;-85
2022/04/16 10:04:12;;;;;;;0.40;0.30;;;;;;;;;;4943595;28;20058;-85
2022/04/16 10:06:41;;;;;;;0.05;0.05;;;;;;;;;;4942695;29;20169;-87
2022/04/16 10:09:13;;;;;;;0.10;0.10;;;;;;;;;;4944028;28;20050;-85
2022/04/16 10:14:32;;;;;;;0.20;0.20;;;;;;;;;;4945010;28;20065;-86
2022/04/16 10:17:03;;;;;;;0.30;0.30;;;;;;;;;;4944780;28;20027;-85
2022/04/16 10:19:45;;;;;;;0.08;0.08;;;;;;;;;;4940416;28;20077;-86
2022/04/16 10:22:21;;;;;;;0.05;0.03;;;;;;;;;;4941892;28;20156;-86
2022/04/16 10:24:48;;;;;;;1.05;0.22;;;;;;;;;;4941377;28;20022;-86
2022/04/16 10:27:14;;;;;;;;;;;;;;;;;;4941514;28;20035;-85
2022/04/16 10:29:40;;;;;;;0.00;0.00;;;;;;;;;;4941606;28;20458;-85
2022/04/16 10:32:26;;;;;;;0.00;0.00;;;;;;;;;;4941873;28;20047;-86
2022/04/16 10:35:01;;;;;;;0.00;0.00;;;;;;;;;;4940128;28;20031;-83
2022/04/16 10:37:28;;;;;;;1.07;1.03;;;;;;;;;;4940342;28;20427;-84
2022/04/16 10:39:55;;;;;;;0.10;0.10;;;;;;;;;;4941690;28;20629;-89
2022/04/16 10:42:32;;;;;;;0.45;0.20;;;;;;;;;;4940117;28;20032;-85
2022/04/16 10:45:06;;;;;;;0.20;0.03;;;;;;;;;;4936906;29;20043;-86
2022/04/16 10:47:35;;;;;;;0.28;0.22;;;;;;;;;;4956900;28;20105;-86
2022/04/16 10:50:07;;;;;;;0.05;0.05;;;;;;;;;;4941783;28;20122;-84
2022/04/16 10:52:34;;;;;;;0.30;0.30;;;;;;;;;;4942681;28;20035;-86
2022/04/16 10:55:00;;;;;;;0.05;0.05;;;;;;;;;;4941170;28;20086;-83
2022/04/16 10:57:26;;;;;;;;;;;;;;;;;;4940876;28;20046;-83
2022/04/16 10:59:56;;;;;;;0.85;0.52;;;;;;;;;;4932514;28;19985;-83
2022/04/16 11:02:25;;;;;;;0.00;0.00;;;;;;;;;;4945458;28;20047;-86
2022/04/16 11:04:57;;;;;;;0.10;0.10;;;;;;;;;;4943199;28;20042;-87
2022/04/16 11:07:24;;;;;;;0.00;0.00;;;;;;;;;;4941558;28;20835;-83
2022/04/16 11:09:51;;;;;;;;;;;;;;;;;;4940320;28;20027;-85
2022/04/16 11:12:17;;;;;;;0.43;0.40;;;;;;;;;;4942458;29;21634;-84
2022/04/16 11:14:45;;;;;;;0.00;0.00;;;;;;;;;;4938827;29;20098;-83
2022/04/16 11:17:14;;;;;;;0.03;0.03;;;;;;;;;;4946608;28;20036;-83
2022/04/16 11:19:40;;;;;;;0.20;0.20;;;;;;;;;;4946091;28;20090;-82
2022/04/16 11:22:06;;;;;;;0.00;0.00;;;;;;;;;;4935840;29;20044;-83
2022/04/16 11:24:32;;;;;;;0.00;0.00;;;;;;;;;;4934275;29;20045;-83
2022/04/16 11:35:16;;;;;;;0.08;0.08;;;;;;;;;;4934516;28;20110;-84
2022/04/16 11:37:42;;;;;;;0.10;0.10;;;;;;;;;;4949768;28;20428;-81
2022/04/16 11:40:09;;;;;;;0.00;0.00;;;;;;;;;;4947453;28;20043;-81
2022/04/16 11:42:35;;;;;;;0.20;0.20;;;;;;;;;;4933079;28;20023;-82
2022/04/16 11:45:02;;;;;;;0.30;0.30;;;;;;;;;;4935708;28;20042;-82
2022/04/16 11:47:30;;;;;;;0.10;0.10;;;;;;;;;;4938603;29;20033;-81
2022/04/16 11:49:58;;;;;;;0.00;0.00;;;;;;;;;;4934437;29;20050;-82
2022/04/16 11:52:28;;;;;;;0.00;0.00;;;;;;;;;;4933752;28;20066;-82
2022/04/16 11:55:01;;;;;;;0.17;0.10;;;;;;;;;;4937373;29;20341;-82
2022/04/16 11:57:27;;;;;;;0.08;0.08;;;;;;;;;;4935253;28;20031;-82
2022/04/16 11:59:59;;;;;;;0.10;0.10;;;;;;;;;;4937982;29;20073;-83
2022/04/16 12:02:30;;;;;;;0.15;0.15;;;;;;;;;;4937741;28;20314;-83
2022/04/16 12:05:06;;;;;;;0.20;0.20;;;;;;;;;;4932839;29;20505;-83
2022/04/16 12:07:32;;;;;;;;;;;;;;;;;;4931651;28;20068;-82
2022/04/16 12:10:01;;;;;;;0.08;0.08;;;;;;;;;;4931136;28;20495;-82
2022/04/16 12:12:28;;;;;;;0.03;0.03;;;;;;;;;;4932091;28;20051;-84
2022/04/16 12:14:54;;;;;;;0.32;0.25;;;;;;;;;;4936239;28;20153;-82
2022/04/16 12:17:24;;;;;;;0.08;0.08;;;;;;;;;;4930960;28;20603;-82
2022/04/16 12:19:57;;;;;;;0.08;0.08;;;;;;;;;;4932604;28;20051;-82
2022/04/16 12:22:23;;;;;;;0.05;0.05;;;;;;;;;;4931488;28;20401;-83
2022/04/16 12:24:49;;;;;;;0.20;0.20;;;;;;;;;;4932648;28;20030;-83
2022/04/16 12:27:24;;;;;;;0.73;0.52;;;;;;;;;;4946316;28;20497;-84
2022/04/16 12:29:50;;;;;;;0.00;0.00;;;;;;;;;;4940224;29;20039;-82
2022/04/16 12:32:24;;;;;;;0.30;0.30;;;;;;;;;;4942486;28;20416;-81
2022/04/16 12:34:51;;;;;;;0.10;0.10;;;;;;;;;;4938124;28;20040;-83
2022/04/16 12:37:17;;;;;;;;;;;;;;;;;;4931068;28;20408;-85
2022/04/16 12:39:43;;;;;;;0.10;0.10;;;;;;;;;;4931396;28;19970;-83
2022/04/16 12:42:09;;;;;;;0.82;0.45;;;;;;;;;;4931649;29;20035;-84
2022/04/16 12:44:35;;;;;;;0.20;0.20;;;;;;;;;;4937326;28;20030;-86
2022/04/16 12:47:01;;;;;;;0.08;0.08;;;;;;;;;;4937960;28;20538;-83
2022/04/16 12:49:27;;;;;;;0.32;0.25;;;;;;;;;;4936549;28;20397;-83
2022/04/16 12:51:53;;;;;;;12.88;1.50;;;;;;;;;;4942804;28;20105;-84
2022/04/16 12:54:19;;;;;;;0.10;0.10;;;;;;;;;;4940972;28;20031;-83
2022/04/16 12:56:47;;;;;;;0.10;0.10;;;;;;;;;;4947845;28;20769;-82
2022/04/16 12:59:13;;;;;;;0.30;0.30;;;;;;;;;;4941924;28;20118;-82
2022/04/16 13:01:39;;;;;;;0.20;0.10;;;;;;;;;;4943684;28;20583;-83
2022/04/16 13:04:05;;;;;;;0.57;0.17;;;;;;;;;;4939498;28;20062;-83
2022/04/16 13:06:32;;;;;;;0.05;0.05;;;;;;;;;;4941811;28;20038;-84
2022/04/16 13:09:00;;;;;;;0.05;0.05;;;;;;;;;;4933403;29;20035;-84
2022/04/16 13:11:26;;;;;;;0.20;0.20;;;;;;;;;;4933861;29;20102;-83
2022/04/16 13:13:53;;;;;;;0.10;0.10;;;;;;;;;;4935087;28;20144;-84
2022/04/16 13:16:19;;;;;;;0.20;0.20;;;;;;;;;;4939319;28;20117;-84
2022/04/16 13:18:45;;;;;;;0.35;0.22;;;;;;;;;;4939744;28;20043;-83
2022/04/16 13:21:11;;;;;;;0.03;0.03;;;;;;;;;;4939018;28;20034;-84
2022/04/16 13:23:38;;;;;;;0.20;0.20;;;;;;;;;;4946455;28;20035;-84
2022/04/16 13:26:04;;;;;;;0.20;0.10;;;;;;;;;;4936195;28;20054;-85
2022/04/16 13:28:30;;;;;;;1.13;0.73;;;;;;;;;;4939536;28;20126;-84
2022/04/16 13:30:56;;;;;;;0.03;0.03;;;;;;;;;;4944383;28;20126;-85
2022/04/16 13:33:22;;;;;;;0.00;0.00;;;;;;;;;;4941463;28;20051;-82
2022/04/16 13:35:49;;;;;;;0.43;0.20;;;;;;;;;;4940207;28;20046;-82
2022/04/16 13:38:15;;;;;;;0.30;0.30;;;;;;;;;;4941501;28;20054;-83
2022/04/16 13:43:26;;;;;;;0.68;0.10;;;;;;;;;;4932909;28;20081;-84
2022/04/16 13:45:52;;;;;;;0.20;0.17;;;;;;;;;;4938933;29;20059;-84
2022/04/16 13:48:18;;;;;;;0.13;0.13;;;;;;;;;;4941901;28;20086;-85
2022/04/16 13:50:44;;;;;;;0.15;0.15;;;;;;;;;;4931406;29;20035;-83
2022/04/16 13:53:10;;;;;;;0.57;0.57;;;;;;;;;;4928915;28;20078;-84
2022/04/16 13:55:36;;;;;;;0.22;0.22;;;;;;;;;;4940437;28;20126;-84
2022/04/16 13:58:02;;;;;;;0.05;0.05;;;;;;;;;;4941171;28;20097;-85
2022/04/16 14:00:28;;;;;;;0.15;0.15;;;;;;;;;;4936615;28;20038;-86
2022/04/16 14:02:56;;;;;;;0.70;0.70;;;;;;;;;;4946496;28;20046;-82
2022/04/16 14:08:06;;;;;;;0.35;0.20;;;;;;;;;;4938882;29;20038;-85
2022/04/16 14:10:32;;;;;;;0.20;0.20;;;;;;;;;;4940060;28;20037;-85
2022/04/16 14:12:58;;;;;;;0.00;0.00;;;;;;;;;;4935718;28;20051;-85
2022/04/16 14:15:24;;;;;;;0.03;0.03;;;;;;;;;;4930237;29;20055;-85
2022/04/16 14:17:51;;;;;;;0.03;0.03;;;;;;;;;;4937059;28;20047;-85
2022/04/16 14:20:17;;;;;;;0.00;0.00;;;;;;;;;;4940903;28;20771;-85
2022/04/16 14:22:44;;;;;;;0.52;0.15;;;;;;;;;;4939390;28;20110;-85
2022/04/16 14:25:10;;;;;;;0.20;0.20;;;;;;;;;;4939316;28;20579;-85
2022/04/16 14:27:36;;;;;;;0.10;0.10;;;;;;;;;;4934957;28;20405;-84
2022/04/16 14:30:03;;;;;;;0.28;0.10;;;;;;;;;;4941437;28;20420;-85
2022/04/16 14:32:29;;;;;;;0.10;0.05;;;;;;;;;;4941516;29;20143;-85
2022/04/16 14:34:55;;;;;;;0.20;0.20;;;;;;;;;;4942121;28;20054;-85
2022/04/16 14:37:22;;;;;;;0.00;0.00;;;;;;;;;;4946095;28;20053;-85
2022/04/16 14:39:48;;;;;;;0.00;0.00;;;;;;;;;;4941116;29;20031;-85
2022/04/16 14:42:15;;;;;;;0.13;0.00;;;;;;;;;;4935989;28;20069;-85
2022/04/16 14:44:42;;;;;;;0.13;0.10;;;;;;;;;;4946309;28;20408;-85
2022/04/16 14:47:08;;;;;;;0.10;0.10;;;;;;;;;;4946733;28;20050;-84
2022/04/16 14:49:34;;;;;;;0.03;0.03;;;;;;;;;;4933646;28;20083;-86
2022/04/16 14:52:00;;;;;;;0.45;0.45;;;;;;;;;;4915198;28;20062;-86
2022/04/16 14:54:27;;;;;;;0.20;0.10;;;;;;;;;;4930874;28;20023;-83
2022/04/16 14:56:53;;;;;;;0.00;0.00;;;;;;;;;;4949606;28;20398;-84
2022/04/16 14:59:19;;;;;;;0.30;0.03;;;;;;;;;;4938015;28;20031;-82
2022/04/16 15:01:45;;;;;;;0.10;0.10;;;;;;;;;;4932381;28;20036;-83
2022/04/16 15:04:12;;;;;;;1.45;0.20;;;;;;;;;;4938040;28;20094;-83
2022/04/16 15:06:38;;;;;;;0.00;0.00;;;;;;;;;;4946215;28;20039;-83
2022/04/16 15:09:04;;;;;;;;;;;;;;;;;;4938351;28;20027;-84
2022/04/16 15:11:30;;;;;;;0.00;0.00;;;;;;;;;;4942339;29;20721;-82
2022/04/16 15:13:56;;;;;;;0.10;0.10;;;;;;;;;;4943471;28;20449;-83
2022/04/16 15:16:22;;;;;;;0.10;0.10;;;;;;;;;;4946210;28;20405;-84
2022/04/16 15:18:48;;;;;;;0.40;0.22;;;;;;;;;;4943549;28;20157;-83
2022/04/16 15:21:14;;;;;;;0.05;0.05;;;;;;;;;;4943708;28;20063;-82
2022/04/16 15:23:40;;;;;;;0.20;0.10;;;;;;;;;;4945338;28;20031;-85